Latest Weather Observations for Fawkner Beacon

IDV60801

Issued at 10:05 pm EST Monday 22 September 2014 (issued every 30 minutes, with the page automatically refreshed every 10 minutes)

About weather observations | Map of weather stations | Latest weather observations for VIC | Other Formats
Station Details ID: 086376 Name: FAWKNER BEACON Lat: -37.91 Lon: 144.93 Height: 17.0 m
Data from the previous 72 hours. | See also: Recent months for locations in Victoria
Date/Time
EST
Temp
°C
App
Temp
°C
Dew
Point
Rel
Hum
%
Delta-T
°C
Wind Press
QNH
hPa
Press
MSL
hPa
Rain
since 9 am
mm
Dir
 
Spd
km/h
Gust
km/h
Spd
kts
Gust
kts
22/10:00pm - - - - - N 11 15 6 8 - - -
22/09:30pm - - - - - N 9 11 5 6 - - -
22/09:00pm - - - - - N 13 15 7 8 - - -
22/08:30pm - - - - - NE 15 17 8 9 - - -
22/08:00pm - - - - - NE 13 15 7 8 - - -
22/07:30pm - - - - - ENE 13 20 7 11 - - -
22/07:00pm - - - - - N 19 22 10 12 - - -
22/06:30pm - - - - - N 13 20 7 11 - - -
22/06:00pm - - - - - E 9 13 5 7 - - -
22/05:30pm - - - - - ESE 13 15 7 8 - - -
22/05:00pm - - - - - ESE 17 20 9 11 - - -
22/04:30pm - - - - - ESE 19 24 10 13 - - -
22/04:00pm - - - - - ESE 19 24 10 13 - - -
22/03:30pm - - - - - ESE 19 22 10 12 - - -
22/03:00pm - - - - - ESE 17 20 9 11 - - -
22/02:30pm - - - - - SE 19 22 10 12 - - -
22/02:00pm - - - - - SE 17 20 9 11 - - -
22/01:30pm - - - - - SSE 17 20 9 11 - - -
22/01:00pm - - - - - SSE 13 17 7 9 - - -
22/12:30pm - - - - - SSE 9 11 5 6 - - -
22/12:00pm - - - - - E 13 13 7 7 - - -
22/11:30am - - - - - N 7 9 4 5 - - -
22/11:00am - - - - - N 4 7 2 4 - - -
22/10:30am - - - - - CALM 0 0 0 0 - - -
22/10:00am - - - - - CALM 0 0 0 0 - - -
22/09:30am - - - - - N 7 9 4 5 - - -
22/09:00am - - - - - N 9 11 5 6 - - -
22/08:30am - - - - - N 9 11 5 6 - - -
22/08:00am - - - - - N 9 13 5 7 - - -
22/07:30am - - - - - N 9 11 5 6 - - -
22/07:00am - - - - - N 9 13 5 7 - - -
22/06:30am - - - - - N 9 11 5 6 - - -
22/06:00am - - - - - N 13 17 7 9 - - -
22/05:30am - - - - - N 13 15 7 8 - - -
22/05:00am - - - - - NNW 13 15 7 8 - - -
22/04:30am - - - - - NNW 13 15 7 8 - - -
22/04:00am - - - - - NNW 13 15 7 8 - - -
22/03:30am - - - - - NNW 11 15 6 8 - - -
22/03:00am - - - - - WNW 13 15 7 8 - - -
22/02:30am - - - - - NNE 9 11 5 6 - - -
22/02:00am - - - - - ENE 7 11 4 6 - - -
22/01:30am - - - - - ENE 6 7 3 4 - - -
22/01:00am - - - - - ENE 9 11 5 6 - - -
22/12:30am - - - - - ENE 7 11 4 6 - - -
22/12:00am - - - - - ENE 9 11 5 6 - - -
 
Date/Time
EST
Temp
°C
App
Temp
°C
Dew
Point
Rel
Hum
%
Delta-T
°C
Wind Press
QNH
hPa
Press
MSL
hPa
Rain
since 9 am
mm
Dir
 
Spd
km/h
Gust
km/h
Spd
kts
Gust
kts
21/11:30pm - - - - - ENE 9 11 5 6 - - -
21/11:00pm - - - - - E 9 11 5 6 - - -
21/10:30pm - - - - - E 13 15 7 8 - - -
21/10:00pm - - - - - E 11 13 6 7 - - -
21/09:30pm - - - - - E 13 17 7 9 - - -
21/09:00pm - - - - - ESE 15 20 8 11 - - -
21/08:30pm - - - - - SE 19 22 10 12 - - -
21/08:00pm - - - - - SE 22 24 12 13 - - -
21/07:30pm - - - - - SE 24 28 13 15 - - -
21/07:00pm - - - - - ESE 28 32 15 17 - - -
21/06:30pm - - - - - SSE 28 32 15 17 - - -
21/06:00pm - - - - - SSE 30 32 16 17 - - -
21/05:30pm - - - - - SSE 30 33 16 18 - - -
21/05:00pm - - - - - S 28 32 15 17 - - -
21/04:30pm - - - - - S 28 32 15 17 - - -
21/04:00pm - - - - - S 26 28 14 15 - - -
21/03:30pm - - - - - S 24 26 13 14 - - -
21/03:00pm - - - - - S 20 24 11 13 - - -
21/02:30pm - - - - - S 19 22 10 12 - - -
21/02:00pm - - - - - S 17 20 9 11 - - -
21/01:30pm - - - - - S 17 20 9 11 - - -
21/01:00pm - - - - - S 17 20 9 11 - - -
21/12:30pm - - - - - S 13 17 7 9 - - -
21/12:00pm - - - - - S 13 17 7 9 - - -
21/11:30am - - - - - SE 9 13 5 7 - - -
21/11:00am - - - - - SE 13 17 7 9 - - -
21/10:30am - - - - - ESE 13 20 7 11 - - -
21/10:00am - - - - - SE 19 22 10 12 - - -
21/09:30am - - - - - ESE 13 20 7 11 - - -
21/09:00am - - - - - ESE 11 13 6 7 - - -
21/08:30am - - - - - E 9 11 5 6 - - -
21/08:00am - - - - - SE 11 15 6 8 - - -
21/07:30am - - - - - ESE 9 13 5 7 - - -
21/07:00am - - - - - SSE 9 13 5 7 - - -
21/06:30am - - - - - SE 17 22 9 12 - - -
21/06:00am - - - - - SE 11 15 6 8 - - -
21/05:30am - - - - - SSE 17 26 9 14 - - -
21/05:00am - - - - - SSE 13 17 7 9 - - -
21/04:30am - - - - - SE 13 15 7 8 - - -
21/04:00am - - - - - SSE 11 13 6 7 - - -
21/03:30am - - - - - S 9 13 5 7 - - -
21/03:00am - - - - - S 20 24 11 13 - - -
21/02:30am - - - - - ESE 9 11 5 6 - - -
21/02:00am - - - - - E 13 17 7 9 - - -
21/01:30am - - - - - SE 13 17 7 9 - - -
21/01:00am - - - - - SE 11 15 6 8 - - -
21/12:30am - - - - - ESE 13 15 7 8 - - -
21/12:00am - - - - - SE 13 17 7 9 - - -
 
Date/Time
EST
Temp
°C
App
Temp
°C
Dew
Point
Rel
Hum
%
Delta-T
°C
Wind Press
QNH
hPa
Press
MSL
hPa
Rain
since 9 am
mm
Dir
 
Spd
km/h
Gust
km/h
Spd
kts
Gust
kts
20/11:30pm - - - - - SSE 13 15 7 8 - - -
20/11:00pm - - - - - SE 13 17 7 9 - - -
20/10:30pm - - - - - SE 17 22 9 12 - - -
20/10:00pm - - - - - SE 20 24 11 13 - - -
20/09:30pm - - - - - SE 20 26 11 14 - - -
20/09:00pm - - - - - SE 20 22 11 12 - - -
20/08:30pm - - - - - SSE 26 30 14 16 - - -
20/08:00pm - - - - - SSE 28 32 15 17 - - -
20/07:30pm - - - - - SSE 30 32 16 17 - - -
20/07:00pm - - - - - SSE 33 39 18 21 - - -
20/06:30pm - - - - - SSE 30 39 16 21 - - -
20/06:00pm - - - - - SSE 32 39 17 21 - - -
20/05:30pm - - - - - SSE 33 41 18 22 - - -
20/05:00pm - - - - - S 28 35 15 19 - - -
20/04:30pm - - - - - S 28 32 15 17 - - -
20/04:00pm - - - - - S 30 33 16 18 - - -
20/03:30pm - - - - - S 30 33 16 18 - - -
20/03:00pm - - - - - S 28 33 15 18 - - -
20/02:30pm - - - - - S 28 32 15 17 - - -
20/02:00pm - - - - - S 26 30 14 16 - - -
20/01:30pm - - - - - SSE 28 32 15 17 - - -
20/01:00pm - - - - - SSE 26 30 14 16 - - -
20/12:30pm - - - - - S 26 30 14 16 - - -
20/12:00pm - - - - - S 22 28 12 15 - - -
20/11:30am - - - - - S 17 22 9 12 - - -
20/11:00am - - - - - SSW 17 20 9 11 - - -
20/10:30am - - - - - SSW 15 28 8 15 - - -
20/10:00am - - - - - SSW 15 20 8 11 - - -
20/09:30am - - - - - SSW 20 24 11 13 - - -
20/09:00am - - - - - SSW 19 22 10 12 - - -
20/08:30am - - - - - SSE 20 22 11 12 - - -
20/08:00am - - - - - S 20 24 11 13 - - -
20/07:30am - - - - - S 24 28 13 15 - - -
20/07:00am - - - - - S 11 13 6 7 - - -
20/06:30am - - - - - S 11 13 6 7 - - -
20/06:00am - - - - - S 13 20 7 11 - - -
20/05:30am - - - - - S 13 22 7 12 - - -
20/05:00am - - - - - SW 20 24 11 13 - - -
20/04:30am - - - - - SW 20 24 11 13 - - -
20/04:00am - - - - - SW 19 22 10 12 - - -
20/03:30am - - - - - SW 19 24 10 13 - - -
20/03:00am - - - - - SW 19 24 10 13 - - -
20/02:30am - - - - - SW 15 17 8 9 - - -
20/02:00am - - - - - SW 22 26 12 14 - - -
20/01:39am - - - - - SSW 28 39 15 21 - - -
20/01:30am - - - - - SSW 15 20 8 11 - - -
20/01:00am - - - - - SSW 20 26 11 14 - - -
20/12:30am - - - - - S 19 26 10 14 - - -
20/12:00am - - - - - S 28 33 15 18 - - -
 
Date/Time
EST
Temp
°C
App
Temp
°C
Dew
Point
Rel
Hum
%
Delta-T
°C
Wind Press
QNH
hPa
Press
MSL
hPa
Rain
since 9 am
mm
Dir
 
Spd
km/h
Gust
km/h
Spd
kts
Gust
kts
19/11:30pm - - - - - SSW 19 24 10 13 - - -
19/11:00pm - - - - - SSW 20 28 11 15 - - -
19/10:30pm - - - - - SSW 22 26 12 14 - - -

Other Formats:

Comma delimited format used in spreadsheet applications
http://www.bom.gov.au/fwo/IDV60801/IDV60801.95872.axf

JavaScript Object Notation format (JSON) in row-major order
http://www.bom.gov.au/fwo/IDV60801/IDV60801.95872.json